Latest Weather Observations for Aireys Inlet

IDV60801

Issued at 11:02 am EST Saturday 1 August 2015 (issued every 30 minutes, with the page automatically refreshed every 10 minutes)

About weather observations | Map of weather stations | Latest weather observations for VIC | Other Formats
Station Details ID: 090180 Name: AIREYS INLET Lat: -38.46 Lon: 144.09 Height: 95.0 m
Data from the previous 72 hours. | See also: Recent months at Aireys Inlet
Date/Time
EST
Temp
°C
App
Temp
°C
Dew
Point
Rel
Hum
%
Delta-T
°C
Wind Press
QNH
hPa
Press
MSL
hPa
Rain
since 9 am
mm
Dir
 
Spd
km/h
Gust
km/h
Spd
kts
Gust
kts
01/11:00am 9.9 5.5 2.7 61 3.1 WSW 15 26 8 14 - - 0.0
01/10:30am 10.2 6.9 4.6 68 2.5 WSW 11 19 6 10 - - 0.0
01/10:00am 9.5 6.7 5.3 75 1.9 WSW 9 15 5 8 - - 0.0
01/09:30am 9.0 5.0 5.0 76 1.8 WSW 15 22 8 12 - - 0.0
01/09:00am 8.7 4.7 4.9 77 1.7 W 15 20 8 11 - - 1.0
01/08:30am 8.4 3.7 5.0 79 1.5 WSW 19 24 10 13 - - 1.0
01/08:00am 8.1 3.5 5.7 85 1.1 WSW 19 32 10 17 - - 1.0
01/07:30am 8.6 3.8 7.2 91 0.7 SW 22 35 12 19 - - 1.0
01/07:00am 9.0 5.7 7.9 93 0.5 SW 15 30 8 16 - - 1.0
01/06:30am 9.3 3.6 8.2 93 0.5 WNW 28 44 15 24 - - 1.0
01/06:00am 8.8 1.6 7.7 93 0.5 WNW 35 52 19 28 - - 0.8
01/05:30am 9.2 0.0 7.8 91 0.7 NW 46 65 25 35 - - 0.4
01/05:00am 9.5 -0.7 7.1 85 1.1 NW 50 74 27 40 - - 0.2
01/04:30am 9.6 0.7 6.7 82 1.4 NW 43 70 23 38 - - 0.0
01/04:01am 10.6 1.3 5.2 69 2.5 NW 43 61 23 33 - - 0.0
01/04:00am 10.7 1.3 5.3 69 2.5 NW 44 61 24 33 - - 0.0
01/03:30am 10.5 2.6 4.6 67 2.7 NNW 35 63 19 34 - - 0.0
01/03:08am 10.2 3.3 4.4 67 2.6 NNW 30 52 16 28 - - 0.0
01/03:00am 10.0 4.2 4.2 67 2.6 NNW 24 54 13 29 - - 0.0
01/02:30am 9.5 6.8 3.9 68 2.5 NNW 7 17 4 9 - - 0.0
01/02:00am 8.8 5.7 3.4 69 2.3 N 9 30 5 16 - - 0.0
01/01:30am 8.3 4.3 3.0 69 2.3 NE 13 24 7 13 - - 0.0
01/01:00am 8.3 5.1 2.8 68 2.3 NE 9 15 5 8 - - 0.0
01/12:30am 8.7 4.6 2.5 65 2.6 N 13 24 7 13 - - 0.0
01/12:00am 8.5 4.9 2.7 67 2.5 NNE 11 19 6 10 - - 0.0
 
Date/Time
EST
Temp
°C
App
Temp
°C
Dew
Point
Rel
Hum
%
Delta-T
°C
Wind Press
QNH
hPa
Press
MSL
hPa
Rain
since 9 am
mm
Dir
 
Spd
km/h
Gust
km/h
Spd
kts
Gust
kts
31/11:30pm 8.5 3.3 2.5 66 2.5 NNE 19 32 10 17 - - 0.0
31/11:00pm 7.8 2.6 2.7 70 2.1 NNE 19 30 10 16 - - 0.0
31/10:30pm 7.2 2.8 2.9 74 1.8 NE 15 24 8 13 - - 0.0
31/10:00pm 7.8 2.7 3.1 72 2.0 NE 19 30 10 16 - - 0.0
31/09:30pm 7.7 3.7 2.8 71 2.1 NNE 13 19 7 10 - - 0.0
31/09:00pm 7.9 4.6 2.6 69 2.2 NE 9 19 5 10 - - 0.0
31/08:30pm 8.7 3.5 2.5 65 2.6 N 19 28 10 15 - - 0.0
31/08:00pm 8.7 2.9 2.3 64 2.7 NNW 22 35 12 19 - - 0.0
31/07:30pm 8.8 3.0 2.4 64 2.7 NNW 22 37 12 20 - - 0.0
31/07:00pm 8.8 2.4 3.0 67 2.5 NNW 26 41 14 22 - - 0.0
31/06:30pm 8.9 3.3 3.3 68 2.4 NNW 22 32 12 17 - - 0.0
31/06:00pm 9.1 3.8 3.1 66 2.6 NNW 20 33 11 18 - - 0.0
31/05:30pm 9.2 4.2 3.4 67 2.5 NNW 19 28 10 15 - - 0.0
31/05:00pm 9.9 6.1 3.9 66 2.7 NNW 13 20 7 11 - - 0.0
31/04:30pm 10.5 6.2 3.3 61 3.2 NNW 15 28 8 15 - - 0.0
31/04:00pm 11.0 7.5 3.3 59 3.4 NNW 11 22 6 12 - - 0.0
31/03:30pm 10.9 5.8 3.2 59 3.4 NNW 19 37 10 20 - - 0.0
31/03:00pm 10.6 5.2 2.4 57 3.5 NNW 20 33 11 18 - - 0.0
31/02:30pm 10.2 3.6 2.1 57 3.4 NW 26 39 14 21 - - 0.0
31/02:00pm 10.3 3.7 1.9 56 3.6 NNW 26 37 14 20 - - 0.0
31/01:30pm 11.1 7.0 2.4 55 3.8 NNW 13 32 7 17 - - 0.0
31/01:00pm 10.4 6.1 3.4 62 3.1 NW 15 26 8 14 - - 0.0
31/12:30pm 9.0 5.2 4.0 71 2.2 NW 13 24 7 13 - - 0.0
31/12:00pm 8.8 4.9 3.6 70 2.3 NW 13 22 7 12 - - 0.0
31/11:30am 8.1 3.4 3.4 72 2.0 NW 17 22 9 12 - - 0.0
31/11:00am 8.6 3.6 4.4 75 1.9 NW 20 28 11 15 - - 0.0
31/10:30am 7.6 1.3 3.6 76 1.7 NW 26 35 14 19 - - 0.0
31/10:00am 7.4 1.5 4.0 79 1.5 NW 24 32 13 17 - - 0.0
31/09:30am 6.8 1.2 3.6 80 1.4 NW 22 32 12 17 - - 0.0
31/09:00am 7.0 2.1 4.1 82 1.3 NW 19 24 10 13 - - 3.8
31/08:30am 5.7 1.9 3.7 87 0.8 NW 13 17 7 9 - - 3.8
31/08:00am 4.8 1.6 3.0 88 0.7 WNW 9 19 5 10 - - 3.8
31/07:30am 5.2 0.5 3.1 86 0.9 NW 17 20 9 11 - - 3.8
31/07:00am 4.4 -0.7 3.1 91 0.5 NW 19 24 10 13 - - 3.8
31/06:30am 5.2 0.2 3.4 88 0.8 NW 19 24 10 13 - - 3.8
31/06:00am 5.1 -0.5 3.4 89 0.7 NW 22 26 12 14 - - 3.8
31/05:30am 5.0 -0.2 3.3 89 0.7 NW 20 28 11 15 - - 3.8
31/05:00am 5.0 -0.2 3.5 90 0.6 NW 20 24 11 13 - - 3.8
31/04:30am 5.4 2.2 3.3 86 0.9 WNW 9 15 5 8 - - 3.8
31/04:00am 6.9 2.2 3.3 78 1.5 W 17 24 9 13 - - 3.8
31/03:30am 6.2 1.9 3.4 82 1.2 WNW 15 19 8 10 - - 3.8
31/03:00am 6.9 1.8 3.3 78 1.5 WNW 19 24 10 13 - - 3.8
31/02:30am 6.7 1.7 3.5 80 1.4 W 19 24 10 13 - - 3.8
31/02:00am 6.6 2.0 3.8 82 1.2 W 17 22 9 12 - - 3.8
31/01:30am 6.0 1.5 4.2 88 0.8 WNW 17 20 9 11 - - 3.8
31/01:00am 6.2 2.2 4.7 90 0.7 WNW 15 19 8 10 - - 3.8
31/12:30am 6.9 2.8 4.6 85 1.0 WNW 15 20 8 11 - - 3.8
31/12:00am 6.8 2.8 5.1 89 0.8 WNW 15 24 8 13 - - 3.8
 
Date/Time
EST
Temp
°C
App
Temp
°C
Dew
Point
Rel
Hum
%
Delta-T
°C
Wind Press
QNH
hPa
Press
MSL
hPa
Rain
since 9 am
mm
Dir
 
Spd
km/h
Gust
km/h
Spd
kts
Gust
kts
30/11:30pm 6.9 3.4 5.5 91 0.6 NW 13 17 7 9 - - 3.8
30/11:00pm 7.4 3.5 5.5 88 0.9 NW 15 19 8 10 - - 3.8
30/10:30pm 7.8 3.5 5.3 84 1.1 WNW 17 22 9 12 - - 3.8
30/10:00pm 8.0 3.2 5.6 85 1.1 WNW 20 30 11 16 - - 3.8
30/09:30pm 7.8 3.6 5.8 87 0.9 WNW 17 28 9 15 - - 3.8
30/09:00pm 7.8 3.0 5.8 87 0.9 WNW 20 30 11 16 - - 3.8
30/08:30pm 8.2 3.8 6.5 89 0.8 W 19 26 10 14 - - 3.6
30/08:00pm 8.2 3.5 6.0 86 1.0 W 20 35 11 19 - - 3.6
30/07:30pm 8.8 3.2 7.3 90 0.7 WNW 26 39 14 21 - - 3.2
30/07:00pm 8.8 1.4 6.9 88 0.9 NW 35 61 19 33 - - 2.6
30/06:30pm 10.4 0.3 5.8 73 2.1 NW 48 72 26 39 - - 2.0
30/06:00pm 9.6 1.6 5.6 76 1.8 NW 37 56 20 30 - - 2.0
30/05:30pm 9.0 1.8 5.7 80 1.5 NW 33 52 18 28 - - 2.0
30/05:15pm 8.7 2.5 6.0 83 1.2 NW 28 46 15 25 - - 2.0
30/05:00pm 8.3 2.5 6.1 86 1.0 NNW 26 46 14 25 - - 2.0
30/04:58pm 8.3 2.1 6.1 86 1.0 NNW 28 46 15 25 - - 2.0
30/04:30pm 8.7 4.6 6.2 84 1.2 NNW 17 28 9 15 - - 1.2
30/04:00pm 10.3 5.8 4.2 66 2.7 N 17 30 9 16 - - 0.8
30/03:30pm 10.1 5.7 4.5 68 2.5 N 17 37 9 20 - - 0.8
30/03:00pm 9.8 6.1 6.5 80 1.5 NNE 15 22 8 12 - - 0.8
30/02:30pm 10.0 4.8 5.6 74 2.0 N 22 35 12 19 - - 0.4
30/02:00pm 10.8 5.8 3.8 62 3.1 NNW 19 39 10 21 - - 0.2
30/01:30pm 10.6 5.9 2.9 59 3.3 N 17 33 9 18 - - 0.2
30/01:04pm 10.4 3.5 2.3 57 3.5 N 28 46 15 25 - - 0.2
30/01:00pm 10.6 3.3 2.2 56 3.6 N 30 46 16 25 - - 0.2
30/12:30pm 11.1 3.4 2.4 55 3.8 N 32 57 17 31 - - 0.2
30/12:05pm 11.9 5.2 3.4 56 3.8 N 28 52 15 28 - - 0.2
30/12:00pm 12.0 5.3 3.5 56 3.8 N 28 43 15 23 - - 0.2
30/11:35am 11.1 4.4 3.9 61 3.2 N 28 48 15 26 - - 0.2
30/11:30am 11.1 4.9 4.3 63 3.1 N 26 44 14 24 - - 0.2
30/11:02am 9.8 2.3 3.5 65 2.8 N 32 56 17 30 - - 0.2
30/11:00am 9.8 2.4 3.8 66 2.6 N 32 46 17 25 - - 0.2
30/10:50am 9.7 3.1 4.1 68 2.5 N 28 46 15 25 - - 0.2
30/10:30am 8.5 1.6 4.5 76 1.8 N 30 43 16 23 - - 0.2
30/10:05am 9.2 1.5 3.2 66 2.6 NNW 33 50 18 27 - - 0.0
30/10:00am 9.3 0.8 3.3 66 2.6 NNW 37 54 20 29 - - 0.0
30/09:30am 8.9 -2.6 2.5 64 2.7 NNW 52 74 28 40 - - 0.0
30/09:00am 8.9 -1.8 2.5 64 2.7 NNW 48 80 26 43 - - 0.0
30/08:59am 8.9 -1.8 2.5 64 2.7 NNW 48 80 26 43 - - 0.0
30/08:33am 8.8 1.9 2.4 64 2.7 NNW 28 52 15 28 - - 0.0
30/08:30am 8.6 2.1 2.4 65 2.6 NNW 26 46 14 25 - - 0.0
30/08:00am 8.2 0.3 2.4 67 2.4 NNW 33 57 18 31 - - 0.0
30/07:30am 7.9 -1.5 2.4 68 2.3 NNW 41 63 22 34 - - 0.0
30/07:00am 7.8 -2.9 2.3 68 2.3 NNW 48 67 26 36 - - 0.0
30/06:30am 7.8 -2.0 2.3 68 2.3 NNW 43 69 23 37 - - 0.0
30/06:00am 7.7 0.4 2.4 69 2.2 NNW 30 50 16 27 - - 0.0
30/05:54am 7.7 0.8 2.4 69 2.2 NNW 28 50 15 27 - - 0.0
30/05:30am 7.3 2.5 2.4 71 2.0 NNW 17 37 9 20 - - 0.0
30/05:00am 5.7 1.2 2.4 79 1.4 NE 15 24 8 13 - - 0.0
30/04:30am 6.4 1.5 2.3 75 1.7 NNE 17 26 9 14 - - 0.0
30/04:00am 6.8 1.4 2.5 74 1.8 N 20 30 11 16 - - 0.0
30/03:30am 7.2 1.1 2.5 72 2.0 N 24 35 13 19 - - 0.0
30/03:00am 7.1 1.7 2.6 73 1.9 N 20 37 11 20 - - 0.0
30/02:30am 7.1 2.3 2.6 73 1.9 N 17 26 9 14 - - 0.0
30/02:00am 7.8 2.4 2.7 70 2.1 N 20 32 11 17 - - 0.0
30/01:30am 8.0 2.7 2.9 70 2.2 N 20 33 11 18 - - 0.0
30/01:00am 8.0 2.0 3.1 71 2.1 N 24 39 13 21 - - 0.0
30/12:30am 7.8 2.5 3.1 72 2.0 N 20 33 11 18 - - 0.0
30/12:00am 7.9 1.5 3.2 72 2.0 N 26 39 14 21 - - 0.0
 
Date/Time
EST
Temp
°C
App
Temp
°C
Dew
Point
Rel
Hum
%
Delta-T
°C
Wind Press
QNH
hPa
Press
MSL
hPa
Rain
since 9 am
mm
Dir
 
Spd
km/h
Gust
km/h
Spd
kts
Gust
kts
29/11:30pm 8.1 2.1 3.2 71 2.1 N 24 35 13 19 - - 0.0
29/11:00pm 8.1 2.8 3.2 71 2.1 N 20 33 11 18 - - 0.0
29/10:30pm 7.8 3.5 3.5 74 1.8 NNE 15 24 8 13 - - 0.0
29/10:00pm 8.2 3.6 3.7 73 1.9 NNE 17 28 9 15 - - 0.0
29/09:30pm 8.5 4.3 3.6 71 2.1 NNE 15 26 8 14 - - 0.0
29/09:00pm 8.8 4.2 3.6 70 2.3 NNE 17 30 9 16 - - 0.0
29/08:30pm 8.8 5.4 4.0 72 2.1 NNE 11 19 6 10 - - 0.0
29/08:00pm 9.0 5.2 4.0 71 2.2 NNE 13 24 7 13 - - 0.0
29/07:30pm 9.3 5.1 3.7 68 2.4 NNE 15 22 8 12 - - 0.0
29/07:00pm 9.1 5.8 4.3 72 2.1 NNE 11 17 6 9 - - 0.0
29/06:30pm 9.5 6.2 4.5 71 2.2 NNE 11 17 6 9 - - 0.0
29/06:00pm 9.8 6.1 4.6 70 2.3 N 13 20 7 11 - - 0.0
29/05:30pm 10.2 6.0 3.9 65 2.8 N 15 24 8 13 - - 0.0
29/05:00pm 10.3 5.8 4.0 65 2.8 NNW 17 28 9 15 - - 0.0
29/04:30pm 10.5 6.4 4.6 67 2.7 N 15 24 8 13 - - 0.0
29/04:00pm 10.6 6.5 4.5 66 2.7 N 15 24 8 13 - - 0.0
29/03:30pm 10.9 7.6 4.4 64 2.9 N 11 22 6 12 - - 0.0
29/03:00pm 11.2 6.7 4.0 61 3.2 NNW 17 30 9 16 - - 0.0
29/02:30pm 11.5 6.3 3.8 59 3.4 NW 20 33 11 18 - - 0.0
29/02:00pm 11.7 6.8 4.0 59 3.5 NW 19 30 10 16 - - 0.0
29/01:30pm 11.6 6.7 4.1 60 3.4 NW 19 35 10 19 - - 0.0
29/01:00pm 11.7 6.8 4.9 63 3.1 NW 20 35 11 19 - - 0.0
29/12:30pm 12.2 7.6 5.4 63 3.2 NNW 19 33 10 18 - - 0.0
29/12:00pm 11.4 6.5 5.1 65 2.9 NNW 20 41 11 22 - - 0.0
29/11:30am 11.2 6.3 5.1 66 2.8 NNW 20 32 11 17 - - 0.0

Other Formats:

Comma delimited format used in spreadsheet applications
http://www.bom.gov.au/fwo/IDV60801/IDV60801.94846.axf

JavaScript Object Notation format (JSON) in row-major order
http://www.bom.gov.au/fwo/IDV60801/IDV60801.94846.json